Flight Track Log - Related Links

Times and Time Zones

All times are in EDT time to prevent confusion due to time zone crossing. See the UAL118 flight status page for this flight to view local times or setup timezone preferences in your user account.

Time Position Orientation Groundspeed Altitude Reporting Facility
EDT Latitude Longitude Course Direction KTS MPH feet Rate Location/Type
Mon 02:59:37 AM 50.0380 8.5730 270° West 125 144  Level FlightAware ADS-B
Mon 02:59:57 AM 50.0330 8.5540 248° West 168 193 400 2,250 Climbing FlightAware ADS-B
Mon 03:00:17 AM 50.0270 8.5310 248° West 164 189 1,500 2,455 Climbing FlightAware ADS-B
Mon 03:00:41 AM 50.0220 8.5040 254° West 173 199 2,200 2,045 Climbing FlightAware ADS-B
Mon 03:01:01 AM 50.0240 8.4780 277° West 169 194 3,000 2,100 Climbing FlightAware ADS-B
Mon 03:01:21 AM 50.0260 8.4540 277° West 178 205 3,600 1,714 Climbing FlightAware ADS-B
Mon 03:01:29 AM 50.0260 8.4420 270° West 190 219 3,800 1,200 Climbing FlightAware ADS-B
Mon 03:01:41 AM 50.0240 8.4250 260° West 204 235 4,000 1,333 Climbing FlightAware ADS-B
Mon 03:02:05 AM 50.0200 8.3880 260° West 226 260 4,600 1,773 Climbing FlightAware ADS-B
Mon 03:02:25 AM 50.0160 8.3560 259° West 240 276 5,300 2,100 Climbing FlightAware ADS-B
Mon 03:02:45 AM 50.0120 8.3230 259° West 248 285 6,000 2,250 Climbing FlightAware ADS-B
Mon 03:02:57 AM 50.0090 8.3000 259° West 252 290 6,500 2,400 Climbing FlightAware ADS-B
Mon 03:03:05 AM 50.0090 8.2860 270° West 253 291 6,800 1,500 Climbing FlightAware ADS-B
Mon 03:03:13 AM 50.0110 8.2730 283° West 252 290 6,900 750 Climbing FlightAware ADS-B
Mon 03:03:21 AM 50.0150 8.2570 291° West 251 289 7,000 1,714 Climbing FlightAware ADS-B
Mon 03:03:41 AM 50.0230 8.2270 293° West 248 285 7,700 2,250 Climbing FlightAware ADS-B
Mon 03:04:01 AM 50.0330 8.1930 295° West 259 298 8,500 1,650 Climbing FlightAware ADS-B
Mon 03:04:21 AM 50.0440 8.1560 295° West 284 327 8,800 1,227 Climbing FlightAware ADS-B
Mon 03:04:45 AM 50.0590 8.1140 299° West 303 349 9,400 1,467 Climbing FlightAware ADS-B
Mon 03:05:06 AM 50.0770 8.0770 307° West 318 366 9,900 1,071 Climbing FlightAware ADS-B
Mon 03:05:41 AM 50.1120 8.0110 310° West 330 380 10,400 1,254 Climbing FlightAware ADS-B
Mon 03:06:13 AM 50.1430 7.9500 308° West 345 397 11,300 2,294 Climbing FlightAware ADS-B
Mon 03:06:49 AM 50.1780 7.8810 308° West 343 395 13,000 2,583 Climbing FlightAware ADS-B
Mon 03:07:25 AM 50.2150 7.8100 309° West 350 403 14,400 2,294 Climbing FlightAware ADS-B
Mon 03:07:57 AM 50.2480 7.7500 311° West 357 411 15,600 2,206 Climbing FlightAware ADS-B
Mon 03:08:33 AM 50.3010 7.7040 331° Northwest 367 422 16,900 2,027 Climbing FlightAware ADS-B
Mon 03:09:11 AM 50.3620 7.6630 337° Northwest 376 433 18,100 1,865 Climbing FlightAware ADS-B
Mon 03:09:47 AM 50.4200 7.6240 337° Northwest 385 443 19,200 1,800 Climbing FlightAware ADS-B
Mon 03:10:21 AM 50.4740 7.5870 336° Northwest 391 450 20,200 2,057 Climbing FlightAware ADS-B
Mon 03:10:57 AM 50.5360 7.5430 336° Northwest 388 447 21,600 2,167 Climbing FlightAware ADS-B
Mon 03:11:33 AM 50.5870 7.4980 331° Northwest 382 440 22,800 1,840 Climbing FlightAware ADS-B
Mon 03:12:12 AM 50.6460 7.4370 327° Northwest 386 444 23,900 1,622 Climbing FlightAware ADS-B
Mon 03:12:47 AM 50.6990 7.3830 327° Northwest 389 448 24,800 1,417 Climbing FlightAware ADS-B
Mon 03:13:24 AM 50.7550 7.3260 327° Northwest 395 455 25,600 1,304 Climbing FlightAware ADS-B
Mon 03:13:56 AM 50.8040 7.2740 326° Northwest 398 458 26,300 1,277 Climbing FlightAware ADS-B
Mon 03:14:11 AM 50.8220 7.2380 308° West 390 449 26,600 1,154 Climbing FlightAware ADS-B
Mon 03:14:48 AM 50.8410 7.1390 287° West 394 453 27,300 971 Climbing FlightAware ADS-B
Mon 03:15:19 AM 50.8580 7.0540 288° West 401 461 27,700 1,059 Climbing FlightAware ADS-B
Mon 03:15:56 AM 50.8740 6.9430 283° West 406 467 28,500 1,068 Climbing FlightAware ADS-B
Mon 03:16:32 AM 50.8890 6.8360 283° West 415 478 29,000 930 Climbing FlightAware ADS-B
Mon 03:17:07 AM 50.9040 6.7340 283° West 422 486 29,600 971 Climbing FlightAware ADS-B
Mon 03:17:40 AM 50.9180 6.6360 283° West 427 491 30,100 870 Climbing FlightAware ADS-B
Mon 03:18:16 AM 50.9340 6.5230 283° West 432 497 30,600 930 Climbing FlightAware ADS-B
Mon 03:18:51 AM 50.9500 6.4140 283° West 436 502 31,200 971 Climbing FlightAware ADS-B
Mon 03:19:24 AM 50.9640 6.3110 282° West 438 504 31,700 1,200 Climbing FlightAware ADS-B
Mon 03:20:01 AM 50.9800 6.1980 283° West 430 495 32,600 1,397 Climbing FlightAware ADS-B
Mon 03:20:37 AM 50.9950 6.0830 282° West 426 490 33,400 1,254 Climbing FlightAware ADS-B
Mon 03:21:08 AM 51.0080 5.9910 283° West 424 488 34,000 522 Climbing FlightAware ADS-B
Mon 03:21:46 AM 51.0240 5.8730 282° West 429 494 34,000  Level FlightAware ADS-B
Mon 03:22:22 AM 51.0380 5.7670 282° West 432 497 34,000 -257 Level FlightAware ADS-B
Mon 03:22:56 AM 51.0530 5.6580 282° West 439 505 33,700 -985 Descending FlightAware ADS-B
Mon 03:23:29 AM 51.0660 5.5570 282° West 437 503 32,900 -1,371 Descending FlightAware ADS-B
Mon 03:24:06 AM 51.0820 5.4410 282° West 420 483 32,100 -761 Descending FlightAware ADS-B
Mon 03:24:40 AM 51.0950 5.3400 282° West 409 471 32,000 -94 Descending FlightAware ADS-B
Mon 03:25:10 AM 51.1060 5.2510 281° West 408 470 32,000  Level FlightAware ADS-B
Mon 03:25:50 AM 51.1210 5.1340 282° West 415 478 32,000  Level FlightAware ADS-B
Mon 03:26:26 AM 51.1350 5.0250 282° West 424 488 32,000  Level FlightAware ADS-B
Mon 03:27:01 AM 51.1490 4.9170 282° West 427 491 32,000  Level FlightAware ADS-B
Mon 03:27:36 AM 51.1620 4.8100 281° West 428 493 32,000  Level FlightAware ADS-B
Mon 03:28:09 AM 51.1740 4.7130 281° West 428 493 32,000  Level FlightAware ADS-B
Mon 03:28:44 AM 51.1906 4.5984 281° West 464 534 32,000  Level FlightAware UK
Mon 03:28:45 AM 51.1880 4.6020 281° West 427 491 32,000  Level FlightAware ADS-B
Mon 03:29:19 AM 51.2010 4.4950 281° West 426 490 32,000  Level FlightAware ADS-B
Mon 03:29:55 AM 51.2150 4.3800 281° West 425 489 32,000  Level FlightAware ADS-B
Mon 03:30:27 AM 51.2270 4.2820 281° West 423 487 32,000  Level FlightAware ADS-B
Mon 03:31:08 AM 51.2420 4.1610 281° West 421 484 32,000  Level FlightAware ADS-B
Mon 03:31:40 AM 51.2530 4.0630 280° West 420 483 32,000  Level FlightAware ADS-B
Mon 03:32:14 AM 51.2650 3.9620 281° West 417 480 32,000  Level FlightAware ADS-B
Mon 03:32:51 AM 51.2780 3.8470 280° West 414 476 32,000  Level FlightAware ADS-B
Mon 03:33:27 AM 51.2910 3.7420 281° West 412 474 32,000  Level FlightAware ADS-B
Mon 03:34:08 AM 51.3050 3.6200 280° West 410 472 32,000  Level FlightAware ADS-B
Mon 03:34:48 AM 51.3170 3.5070 280° West 407 468 32,000  Level FlightAware ADS-B
Mon 03:35:24 AM 51.3300 3.3940 280° West 406 467 32,000  Level FlightAware ADS-B
Mon 03:35:25 AM 51.3328 3.3868 280° West 452 520 32,000  Level FlightAware UK
Mon 03:35:55 AM 51.3421 3.2985 280° West 452 520 32,000  Level FlightAware UK
Mon 03:36:06 AM 51.3440 3.2730 280° West 405 466 32,000  Level FlightAware ADS-B
Mon 03:36:38 AM 51.3540 3.1780 280° West 405 466 32,000  Level FlightAware ADS-B
Mon 03:37:13 AM 51.3675 3.0702 280° West 452 520 32,000  Level FlightAware UK
Mon 03:37:21 AM 51.3680 3.0490 280° West 404 465 32,000  Level FlightAware ADS-B
Mon 03:37:55 AM 51.3811 2.9471 280° West 452 520 32,000  Level FlightAware UK
Mon 03:37:56 AM 51.3790 2.9490 280° West 403 464 32,000  Level FlightAware ADS-B
Mon 03:38:30 AM 51.3890 2.8520 279° West 404 465 32,000  Level FlightAware ADS-B
Mon 03:39:09 AM 51.4020 2.7360 280° West 404 465 32,000  Level FlightAware ADS-B
Mon 03:39:45 AM 51.4130 2.6270 279° West 405 466 32,000  Level FlightAware ADS-B
Mon 03:40:17 AM 51.4230 2.5390 280° West 406 467 32,000  Level FlightAware ADS-B
Mon 03:40:47 AM 51.4320 2.4460 279° West 407 468 32,000  Level FlightAware ADS-B
Mon 03:41:19 AM 51.4440 2.3438 279° West 460 529 32,000  Level FlightAware UK
Mon 03:41:26 AM 51.4440 2.3290 279° West 408 470 32,000  Level FlightAware ADS-B
Mon 03:42:01 AM 51.4566 2.2187 279° West 460 529 32,000  Level FlightAware UK
Mon 03:42:06 AM 51.4560 2.2100 279° West 409 471 32,000  Level FlightAware ADS-B
Mon 03:42:21 AM 51.4613 2.1591 280° West 409 471 32,000  Level FlightAware ADS-B
Mon 03:42:54 AM 51.4711 2.0594 279° West 409 471 32,000  Level FlightAware ADS-B
Mon 03:43:26 AM 51.4804 1.9658 279° West 408 470 32,000  Level FlightAware ADS-B
Mon 03:43:56 AM 51.4893 1.8759 279° West 408 470 32,000  Level FlightAware ADS-B
Mon 03:44:29 AM 51.4989 1.7763 279° West 407 468 32,000  Level FlightAware ADS-B
Mon 03:45:04 AM 51.5089 1.6732 279° West 406 467 32,000  Level FlightAware ADS-B
Mon 03:45:35 AM 51.5175 1.5831 279° West 405 466 32,000  Level FlightAware ADS-B
Mon 03:46:10 AM 51.5273 1.4802 279° West 403 464 32,000  Level FlightAware ADS-B
Mon 03:46:45 AM 51.5360 1.3820 278° West 401 461 32,000  Level FlightAware ADS-B
Mon 03:47:13 AM 51.5444 1.2942 279° West 401 461 32,000 321 Level FlightAware ADS-B
Mon 03:47:41 AM 51.5515 1.2110 278° West 398 458 32,300 712 Climbing FlightAware ADS-B
Mon 03:48:12 AM 51.5537 1.1188 272° West 405 466 32,700 871 Climbing FlightAware ADS-B
Mon 03:48:43 AM 51.5518 1.0245 268° West 406 467 33,200 774 Climbing FlightAware ADS-B
Mon 03:49:14 AM 51.5497 0.9324 268° West 412 474 33,500 689 Climbing FlightAware ADS-B
Mon 03:49:44 AM 51.5480 0.8408 268° West 414 476 33,900 500 Climbing FlightAware ADS-B
Mon 03:50:14 AM 51.5461 0.7472 268° West 418 481 34,000 100 Climbing FlightAware ADS-B
Mon 03:50:44 AM 51.5442 0.6537 268° West 420 483 34,000  Level FlightAware ADS-B
Mon 03:51:15 AM 51.5424 0.5586 268° West 420 483 34,000  Level FlightAware ADS-B
Mon 03:51:48 AM 51.5399 0.4587 268° West 419 482 34,000  Level FlightAware ADS-B
Mon 03:52:18 AM 51.5379 0.3639 268° West 417 480 34,000  Level FlightAware ADS-B
Mon 03:52:55 AM 51.5350 0.2501 268° West 415 478 34,000  Level FlightAware ADS-B
Mon 03:53:26 AM 51.5326 0.1545 268° West 414 476 34,000  Level FlightAware ADS-B
Mon 03:53:58 AM 51.5300 0.0572 268° West 413 475 34,000  Level FlightAware ADS-B
Mon 03:54:29 AM 51.5274 -0.0367 267° West 412 474 34,000  Level FlightAware ADS-B
Mon 03:55:01 AM 51.5245 -0.1337 267° West 411 473 34,000  Level FlightAware ADS-B
Mon 03:55:31 AM 51.5218 -0.2266 267° West 410 472 34,000  Level FlightAware ADS-B
Mon 03:56:01 AM 51.5192 -0.3183 267° West 409 471 34,000  Level FlightAware ADS-B
Mon 03:56:32 AM 51.5163 -0.4108 267° West 410 472 34,000  Level FlightAware ADS-B
Mon 03:57:02 AM 51.5133 -0.5028 267° West 410 472 34,000  Level FlightAware ADS-B
Mon 03:57:33 AM 51.5103 -0.5959 267° West 410 472 34,000  Level FlightAware ADS-B
Mon 03:58:04 AM 51.5072 -0.6886 267° West 411 473 34,000  Level FlightAware ADS-B
Mon 03:58:35 AM 51.5039 -0.7844 267° West 411 473 34,000  Level FlightAware ADS-B
Mon 03:59:06 AM 51.5006 -0.8765 267° West 411 473 34,000  Level FlightAware ADS-B
Mon 03:59:38 AM 51.4972 -0.9730 267° West 411 473 34,000  Level FlightAware ADS-B
Mon 04:00:08 AM 51.4938 -1.0659 267° West 412 474 34,000  Level FlightAware ADS-B
Mon 04:00:39 AM 51.4904 -1.1601 267° West 412 474 34,000  Level FlightAware ADS-B
Mon 04:01:03 AM 51.4910 -1.2334 271° West 407 468 34,000  Level FlightAware ADS-B
Mon 04:01:34 AM 51.4996 -1.3235 279° West 405 466 34,000  Level FlightAware ADS-B
Mon 04:02:05 AM 51.5113 -1.4140 282° West 405 466 34,000  Level FlightAware ADS-B
Mon 04:02:35 AM 51.5245 -1.5019 284° West 404 465 34,000  Level FlightAware ADS-B
Mon 04:03:06 AM 51.5396 -1.5918 285° West 403 464 34,000  Level FlightAware ADS-B
Mon 04:03:36 AM 51.5542 -1.6784 285° West 404 465 34,000  Level FlightAware ADS-B
Mon 04:04:06 AM 51.5683 -1.7671 284° West 405 466 34,000  Level FlightAware ADS-B
Mon 04:04:38 AM 51.5808 -1.8579 283° West 405 466 34,000  Level FlightAware ADS-B
Mon 04:05:08 AM 51.5932 -1.9484 282° West 406 467 34,000  Level FlightAware ADS-B
Mon 04:05:39 AM 51.6059 -2.0389 283° West 406 467 34,000  Level FlightAware ADS-B
Mon 04:06:10 AM 51.6184 -2.1281 283° West 406 467 34,000  Level FlightAware ADS-B
Mon 04:06:37 AM 51.6289 -2.2105 282° West 408 470 34,000  Level FlightAware ADS-B
Mon 04:06:49 AM 51.6309 -2.2467 275° West 410 472 34,000  Level FlightAware ADS-B
Mon 04:07:23 AM 51.6342 -2.3492 273° West 409 471 34,000  Level FlightAware ADS-B
Mon 04:07:55 AM 51.6383 -2.4435 274° West 407 468 34,000  Level FlightAware ADS-B
Mon 04:08:27 AM 51.6435 -2.5399 275° West 407 468 34,000  Level FlightAware ADS-B
Mon 04:08:57 AM 51.6486 -2.6311 275° West 406 467 34,000  Level FlightAware ADS-B
Mon 04:09:27 AM 51.6539 -2.7221 275° West 405 466 34,000  Level FlightAware ADS-B
Mon 04:09:59 AM 51.6591 -2.8166 275° West 405 466 34,000  Level FlightAware ADS-B
Mon 04:10:30 AM 51.6639 -2.9091 275° West 402 463 34,000  Level FlightAware ADS-B
Mon 04:11:18 AM 51.6700 -3.0280 275° West 400 460 34,000  Level FlightAware ADS-B
Mon 04:11:56 AM 51.6760 -3.1580 274° West 397 457 34,000  Level FlightAware ADS-B
Mon 04:12:32 AM 51.6820 -3.2700 275° West 395 455 34,000  Level FlightAware ADS-B
Mon 04:13:05 AM 51.6860 -3.3640 274° West 392 451 34,000 353 Level FlightAware ADS-B
Mon 04:13:40 AM 51.6900 -3.4650 274° West 389 448 34,400 750 Climbing FlightAware ADS-B
Mon 04:14:17 AM 51.6940 -3.5730 273° West 393 452 34,900 493 Climbing FlightAware ADS-B
Mon 04:14:53 AM 51.6980 -3.6760 274° West 396 456 35,000 87 Climbing FlightAware ADS-B
Mon 04:15:26 AM 51.7020 -3.7750 274° West 399 459 35,000  Level FlightAware ADS-B
Mon 04:15:57 AM 51.7121 -3.8745 274° West 464 534 35,000  Level FlightAware UK
Mon 04:16:02 AM 51.7060 -3.8830 274° West 400 460 35,000  Level FlightAware ADS-B
Mon 04:16:32 AM 51.7090 -3.9690 274° West 400 460 35,000  Level FlightAware ADS-B
Mon 04:16:33 AM 51.7160 -3.9810 274° West 464 534 35,000  Level FlightAware UK
Mon 04:17:03 AM 51.7193 -4.0710 274° West 462 532 35,000  Level FlightAware UK
Mon 04:17:11 AM 51.7130 -4.0830 274° West 399 459 35,000  Level FlightAware ADS-B
Mon 04:17:46 AM 51.7170 -4.1940 273° West 399 459 35,000  Level FlightAware ADS-B
Mon 04:18:21 AM 51.7200 -4.2970 273° West 400 460 35,000  Level FlightAware ADS-B
Mon 04:18:54 AM 51.7230 -4.3930 273° West 400 460 35,000  Level FlightAware ADS-B
Mon 04:19:30 AM 51.7270 -4.5010 273° West 400 460 35,000  Level FlightAware ADS-B
Mon 04:20:07 AM 51.7300 -4.6120 273° West 398 458 35,000  Level FlightAware ADS-B
Mon 04:20:42 AM 51.7330 -4.7140 273° West 397 457 35,000  Level FlightAware ADS-B
Mon 04:21:14 AM 51.7360 -4.8090 273° West 397 457 35,000  Level FlightAware ADS-B
Mon 04:21:51 AM 51.7469 -4.9248 273° West 452 520 35,000  Level FlightAware UK
Mon 04:21:51 AM 51.7390 -4.9140 273° West 399 459 35,000  Level FlightAware ADS-B
Mon 04:22:21 AM 51.7494 -5.0137 273° West 452 520 35,000  Level FlightAware UK
Mon 04:22:26 AM 51.7420 -5.0230 273° West 399 459 35,000  Level FlightAware ADS-B
Mon 04:22:57 AM 51.7522 -5.1205 273° West 454 522 35,000  Level FlightAware UK
Mon 04:23:03 AM 51.7450 -5.1320 273° West 401 461 35,000  Level FlightAware ADS-B
Mon 04:23:35 AM 51.7480 -5.2270 273° West 402 463 35,000  Level FlightAware ADS-B
Mon 04:24:04 AM 51.7500 -5.3120 273° West 403 464 35,000  Level FlightAware ADS-B
Mon 04:24:09 AM 51.7578 -5.3349 273° West 454 522 35,000  Level FlightAware UK
Mon 04:24:47 AM 51.7530 -5.4400 272° West 405 466 35,000  Level FlightAware ADS-B
Mon 04:25:19 AM 51.7550 -5.5280 272° West 406 467 35,000  Level FlightAware ADS-B
Mon 04:25:21 AM 51.7629 -5.5518 272° West 456 525 35,000  Level FlightAware UK
Mon 04:25:51 AM 51.7650 -5.6425 272° West 458 527 35,000  Level FlightAware UK
Mon 04:25:54 AM 51.7580 -5.6390 272° West 408 470 35,000  Level FlightAware ADS-B
Mon 04:26:27 AM 51.7674 -5.7518 272° West 460 529 35,000  Level FlightAware UK
Mon 04:26:30 AM 51.7600 -5.7550 272° West 409 471 35,000  Level FlightAware ADS-B
Mon 04:27:06 AM 51.7630 -5.8630 273° West 408 470 35,000  Level FlightAware ADS-B
Mon 04:27:41 AM 51.7660 -5.9680 273° West 405 466 35,000  Level FlightAware ADS-B
Mon 04:28:15 AM 51.7710 -6.0680 275° West 402 463 35,000  Level FlightAware ADS-B
Mon 04:28:50 AM 51.7780 -6.1750 276° West 399 459 35,000  Level FlightAware ADS-B
Mon 04:29:26 AM 51.7850 -6.2810 276° West 400 460 35,000  Level FlightAware ADS-B
Mon 04:30:02 AM 51.7920 -6.3880 276° West 397 457 35,000  Level FlightAware ADS-B
Mon 04:30:33 AM 51.8044 -6.4861 276° West 464 534 35,000  Level FlightAware UK
Mon 04:30:34 AM 51.7970 -6.4820 276° West 396 456 35,000  Level FlightAware ADS-B
Mon 04:31:09 AM 51.8104 -6.5921 276° West 462 532 35,000  Level FlightAware UK
Mon 04:31:10 AM 51.8040 -6.5860 276° West 395 455 35,000  Level FlightAware ADS-B
Mon 04:31:46 AM 51.8100 -6.6920 275° West 394 453 35,000  Level FlightAware ADS-B
Mon 04:32:23 AM 51.8160 -6.7970 275° West 392 451 35,000  Level FlightAware ADS-B
Mon 04:32:57 AM 51.8220 -6.9030 275° West 391 450 35,000  Level FlightAware ADS-B
Mon 04:33:30 AM 51.8270 -6.9960 275° West 390 449 35,000  Level FlightAware ADS-B
Mon 04:34:07 AM 51.8330 -7.1030 275° West 389 448 35,000  Level FlightAware ADS-B
Mon 04:34:42 AM 51.8390 -7.2040 276° West 388 447 35,000  Level FlightAware ADS-B
Mon 04:35:18 AM 51.8440 -7.3070 275° West 389 448 35,000  Level FlightAware ADS-B
Mon 04:35:49 AM 51.8490 -7.3990 275° West 389 448 35,000  Level FlightAware ADS-B
Mon 04:36:26 AM 51.8550 -7.5030 275° West 389 448 35,000  Level FlightAware ADS-B
Mon 04:37:02 AM 51.8658 -7.6164 275° West 450 518 35,000  Level FlightAware UK
Mon 04:37:02 AM 51.8600 -7.6100 275° West 389 448 35,000  Level FlightAware ADS-B
Mon 04:37:32 AM 51.8703 -7.7030 275° West 450 518 35,000  Level FlightAware UK
Mon 04:37:37 AM 51.8650 -7.7060 275° West 390 449 35,000  Level FlightAware ADS-B
Mon 04:38:11 AM 51.8700 -7.8070 275° West 390 449 35,000  Level FlightAware ADS-B
Mon 04:38:46 AM 51.8750 -7.9080 275° West 390 449 35,000  Level FlightAware ADS-B
Mon 04:39:21 AM 51.8800 -8.0120 274° West 391 450 35,000  Level FlightAware ADS-B
Mon 04:39:56 AM 51.8850 -8.1110 275° West 391 450 35,000  Level FlightAware ADS-B
Mon 04:40:30 AM 51.8890 -8.2090 275° West 393 452 35,000  Level FlightAware ADS-B
Mon 04:40:32 AM 51.8942 -8.2253 275° West 450 518 35,000  Level FlightAware UK
Mon 04:41:05 AM 51.8940 -8.3100 275° West 394 453 35,000  Level FlightAware ADS-B
Mon 04:41:08 AM 51.8988 -8.3298 275° West 450 518 35,000  Level FlightAware UK
Mon 04:41:38 AM 51.9026 -8.4176 275° West 450 518 35,000  Level FlightAware UK
Mon 04:41:44 AM 51.8990 -8.4290 275° West 395 455 35,000  Level FlightAware ADS-B
Mon 04:42:14 AM 51.9030 -8.5130 274° West 396 456 35,000  Level FlightAware ADS-B
Mon 04:42:47 AM 51.9070 -8.6120 274° West 398 458 35,000  Level FlightAware ADS-B
Mon 04:43:24 AM 51.9120 -8.7210 274° West 400 460 35,000  Level FlightAware ADS-B
Mon 04:43:59 AM 51.9160 -8.8260 274° West 402 463 35,000  Level FlightAware ADS-B
Mon 04:44:34 AM 51.9210 -8.9290 274° West 403 464 35,000  Level FlightAware ADS-B
Mon 04:44:38 AM 51.9241 -8.9523 274° West 454 522 35,000  Level FlightAware UK
Mon 04:45:09 AM 51.9250 -9.0370 273° West 404 465 35,000  Level FlightAware ADS-B
Mon 04:45:44 AM 51.9290 -9.1400 274° West 405 466 35,000  Level FlightAware ADS-B
Mon 04:46:20 AM 51.9330 -9.2460 274° West 406 467 35,000  Level FlightAware ADS-B
Mon 04:46:59 AM 51.9380 -9.3670 274° West 407 468 35,000  Level FlightAware ADS-B
Mon 04:47:34 AM 51.9410 -9.4730 273° West 408 470 35,000  Level FlightAware ADS-B
Mon 04:48:05 AM 51.9450 -9.5710 274° West 409 471 35,000  Level FlightAware ADS-B
Mon 04:48:44 AM 51.9490 -9.6920 273° West 410 472 35,000  Level FlightAware ADS-B
Mon 04:49:20 AM 51.9520 -9.7960 273° West 411 473 35,000  Level FlightAware ADS-B
Mon 04:49:49 AM 51.9550 -9.8910 273° West 412 474 35,000  Level FlightAware ADS-B
Mon 04:50:25 AM 51.9580 -9.9880 273° West 411 473 35,000  Level FlightAware ADS-B
Mon 04:51:02 AM 51.9620 -10.1180 273° West 412 474 35,000  Level FlightAware ADS-B
Mon 04:51:39 AM 51.9660 -10.2310 273° West 415 478 35,000  Level FlightAware ADS-B
Mon 04:52:12 AM 51.9680 -10.3210 272° West 415 478 35,000  Level FlightAware ADS-B
Mon 04:52:47 AM 51.9720 -10.4410 273° West 416 479 35,000  Level FlightAware ADS-B
Mon 04:53:23 AM 51.9750 -10.5530 273° West 416 479 35,000  Level FlightAware ADS-B
Mon 04:54:00 AM 51.9780 -10.6690 272° West 417 480 35,000  Level FlightAware ADS-B
Mon 04:54:54 AM 51.9810 -10.8130 272° West 417 480 35,000  Level FlightAware ADS-B
Mon 04:55:25 AM 51.9840 -10.9290 272° West 418 481 35,000  Level FlightAware ADS-B
Mon 04:56:01 AM 51.9860 -11.0430 272° West 418 481 35,000  Level FlightAware ADS-B
Mon 04:56:35 AM 51.9890 -11.1520 273° West 418 481 35,000  Level FlightAware ADS-B
Mon 04:57:12 AM 51.9910 -11.2640 272° West 419 482 35,000  Level FlightAware ADS-B
Mon 04:57:46 AM 51.9930 -11.3730 272° West 417 480 35,000  Level FlightAware ADS-B
Mon 04:58:26 AM 51.9960 -11.4990 272° West 416 479 35,000  Level FlightAware ADS-B
Mon 04:58:56 AM 51.9970 -11.5910 271° West 415 478 35,000  Level FlightAware ADS-B
Mon 04:59:36 AM 51.9990 -11.7190 272° West 414 476 35,000  Level FlightAware ADS-B
Mon 05:00:11 AM 52.0010 -11.8200 272° West 413 475 35,000  Level FlightAware ADS-B
Mon 05:00:51 AM 52.0020 -11.9440 271° West 413 475 35,000  Level FlightAware ADS-B
Mon 05:01:34 AM 52.0030 -12.0580 271° West 413 475 35,000  Level FlightAware ADS-B
Mon 05:02:10 AM 52.0030 -12.1530 270° West 413 475 35,000  Level FlightAware ADS-B
Mon 05:02:47 AM 52.0030 -12.2500 270° West 413 475 35,000  Level FlightAware ADS-B
Mon 05:03:23 AM 52.0030 -12.3450 270° West 413 475 35,000  Level FlightAware ADS-B
Mon 05:03:35 AM 52.0200 -12.4440 286° West 978 1125 35,000  Level FlightAware ADS-B
Mon 05:03:40 AM 52.0200 -12.4470 270° West 716 824 35,000 25 Level FlightAware ADS-B
Mon 05:06:00 AM 52.0649 -12.8673 280° West  Level Estimated
Mon 05:07:00 AM 52.0838 -13.0477 280° West  Level Estimated
Mon 05:08:00 AM 52.1023 -13.2283 280° West  Level Estimated
Mon 05:09:00 AM 52.1205 -13.4090 279° West  Level Estimated
Mon 05:10:00 AM 52.1385 -13.5898 279° West  Level Estimated
Mon 05:11:00 AM 52.1562 -13.7708 279° West  Level Estimated
Mon 05:12:00 AM 52.1737 -13.9520 279° West  Level Estimated
Mon 05:13:00 AM 52.1908 -14.1332 279° West  Level Estimated
Mon 05:14:00 AM 52.2077 -14.3146 279° West  Level Estimated
Mon 05:15:00 AM 52.2243 -14.4962 279° West  Level Estimated
Mon 05:16:00 AM 52.2406 -14.6779 278° West  Level Estimated
Mon 05:17:00 AM 52.2566 -14.8597 278° West  Level Estimated
Mon 05:18:00 AM 52.2724 -15.0416 278° West  Level Estimated
Mon 05:19:00 AM 52.2878 -15.2237 278° West  Level Estimated
Mon 05:20:00 AM 52.3030 -15.4059 278° West  Level Estimated
Mon 05:21:00 AM 52.3179 -15.5882 278° West  Level Estimated
Mon 05:22:00 AM 52.3326 -15.7707 278° West  Level Estimated
Mon 05:23:00 AM 52.3469 -15.9533 277° West  Level Estimated
Mon 05:24:00 AM 52.3610 -16.1359 277° West  Level Estimated
Mon 05:25:00 AM 52.3748 -16.3187 277° West  Level Estimated
Mon 05:26:00 AM 52.3883 -16.5016 277° West  Level Estimated
Mon 05:27:00 AM 52.4015 -16.6847 277° West  Level Estimated
Mon 05:28:00 AM 52.4144 -16.8678 277° West  Level Estimated
Mon 05:29:00 AM 52.4271 -17.0510 277° West  Level Estimated
Mon 05:30:00 AM 52.4395 -17.2344 276° West  Level Estimated
Mon 05:31:00 AM 52.4516 -17.4178 276° West  Level Estimated
Mon 05:32:00 AM 52.4634 -17.6014 276° West  Level Estimated
Mon 05:33:00 AM 52.4749 -17.7850 276° West  Level Estimated
Mon 05:34:00 AM 52.4861 -17.9685 276° West  Level Estimated
Mon 05:35:00 AM 52.4971 -18.1520 276° West  Level Estimated
Mon 05:36:00 AM 52.5077 -18.3356 276° West  Level Estimated
Mon 05:37:00 AM 52.5181 -18.5193 275° West  Level Estimated
Mon 05:38:00 AM 52.5281 -18.7031 275° West  Level Estimated
Mon 05:39:00 AM 52.5379 -18.8870 275° West  Level Estimated
Mon 05:40:00 AM 52.5475 -19.0710 275° West  Level Estimated
Mon 05:41:00 AM 52.5567 -19.2550 275° West  Level Estimated
Mon 05:42:00 AM 52.5656 -19.4392 275° West  Level Estimated
Mon 05:43:00 AM 52.5743 -19.6234 274° West  Level Estimated
Mon 05:44:00 AM 52.5827 -19.8076 274° West  Level Estimated
Mon 05:44:00 AM 52.0000 -20.0000 265° West 427 491 36,000  Level ETMS Enhanced Traffic Management System
Mon 05:45:00 AM 52.5908 -19.9920 274° West  Level Estimated
Mon 05:46:00 AM 52.5985 -20.1764 274° West  Level Estimated
Mon 05:47:00 AM 52.6061 -20.3608 274° West  Level Estimated
Mon 05:48:00 AM 52.6133 -20.5454 274° West  Level Estimated
Mon 05:49:00 AM 52.6202 -20.7299 274° West  Level Estimated
Mon 05:50:00 AM 51.9171 -21.3435 264° West 427 491 36,000  Level FlightAware Transoceanic
Mon 05:51:00 AM 51.9041 -21.5350 264° West 427 491 36,000  Level FlightAware Transoceanic
Mon 05:52:00 AM 51.8907 -21.7264 263° West 427 491 36,000  Level FlightAware Transoceanic
Mon 05:53:00 AM 51.8770 -21.9177 263° West 427 491 36,000  Level FlightAware Transoceanic
Mon 05:54:00 AM 51.8629 -22.1089 263° West 427 491 36,000  Level FlightAware Transoceanic
Mon 05:55:00 AM 51.8486 -22.2999 263° West 427 491 36,000  Level FlightAware Transoceanic
Mon 05:56:00 AM 51.8340 -22.4908 263° West 427 491 36,000  Level FlightAware Transoceanic
Mon 05:57:00 AM 51.8190 -22.6816 263° West 427 491 36,000  Level FlightAware Transoceanic
Mon 05:58:00 AM 51.8038 -22.8723 263° West 427 491 36,000  Level FlightAware Transoceanic
Mon 05:59:00 AM 51.7882 -23.0628 262° West 427 491 36,000  Level FlightAware Transoceanic
Mon 06:00:00 AM 51.7724 -23.2532 262° West 427 491 36,000  Level FlightAware Transoceanic
Mon 06:01:00 AM 51.7562 -23.4435 262° West 427 491 36,000  Level FlightAware Transoceanic
Mon 06:02:00 AM 51.7397 -23.6336 262° West 427 491 36,000  Level FlightAware Transoceanic
Mon 06:03:00 AM 51.7229 -23.8236 262° West 427 491 36,000  Level FlightAware Transoceanic
Mon 06:04:00 AM 51.7058 -24.0135 262° West 427 491 36,000  Level FlightAware Transoceanic
Mon 06:05:00 AM 51.6884 -24.2032 262° West 427 491 36,000  Level FlightAware Transoceanic
Mon 06:06:00 AM 51.6707 -24.3927 261° West 427 491 36,000  Level FlightAware Transoceanic
Mon 06:07:00 AM 51.6527 -24.5821 261° West 427 491 36,000  Level FlightAware Transoceanic
Mon 06:08:00 AM 51.6344 -24.7714 261° West 427 491 36,000  Level FlightAware Transoceanic
Mon 06:09:00 AM 51.6158 -24.9605 261° West 427 491 36,000  Level FlightAware Transoceanic
Mon 06:10:00 AM 51.5969 -25.1495 261° West 427 491 36,000  Level FlightAware Transoceanic
Mon 06:11:00 AM 51.5776 -25.3382 261° West 427 491 36,000  Level FlightAware Transoceanic
Mon 06:12:00 AM 51.5581 -25.5269 260° West 427 491 36,000  Level FlightAware Transoceanic
Mon 06:13:00 AM 51.5383 -25.7153 260° West 427 491 36,000  Level FlightAware Transoceanic
Mon 06:14:00 AM 51.5182 -25.9036 260° West 427 491 36,000  Level FlightAware Transoceanic
Mon 06:15:00 AM 51.4977 -26.0917 260° West 427 491 36,000  Level FlightAware Transoceanic
Mon 06:16:00 AM 51.4770 -26.2797 260° West 427 491 36,000  Level FlightAware Transoceanic
Mon 06:17:00 AM 51.4560 -26.4675 260° West 427 491 36,000  Level FlightAware Transoceanic
Mon 06:18:00 AM 51.4346 -26.6551 260° West 427 491 36,000  Level FlightAware Transoceanic
Mon 06:19:00 AM 51.4130 -26.8426 259° West 427 491 36,000  Level FlightAware Transoceanic
Mon 06:20:00 AM 51.3911 -27.0298 259° West 427 491 36,000  Level FlightAware Transoceanic
Mon 06:21:00 AM 51.3688 -27.2169 259° West 427 491 36,000  Level FlightAware Transoceanic
Mon 06:22:00 AM 51.3463 -27.4038 259° West 427 491 36,000  Level FlightAware Transoceanic
Mon 06:23:00 AM 51.3235 -27.5905 259° West 427 491 36,000  Level FlightAware Transoceanic
Mon 06:24:00 AM 51.3004 -27.7770 259° West 427 491 36,000  Level FlightAware Transoceanic
Mon 06:25:00 AM 51.2770 -27.9634 259° West 427 491 36,000  Level FlightAware Transoceanic
Mon 06:26:00 AM 51.2532 -28.1495 258° West 427 491 36,000  Level FlightAware Transoceanic
Mon 06:27:00 AM 51.2292 -28.3355 258° West 427 491 36,000  Level FlightAware Transoceanic
Mon 06:28:00 AM 51.2049 -28.5212 258° West 427 491 36,000  Level FlightAware Transoceanic
Mon 06:29:00 AM 51.1803 -28.7068 258° West 427 491 36,000  Level FlightAware Transoceanic
Mon 06:30:00 AM 51.1554 -28.8921 258° West 427 491 36,000  Level FlightAware Transoceanic
Mon 06:31:00 AM 51.1303 -29.0773 258° West 427 491 36,000  Level FlightAware Transoceanic
Mon 06:32:00 AM 51.1048 -29.2622 258° West 427 491 36,000  Level FlightAware Transoceanic
Mon 06:33:00 AM 51.0790 -29.4470 257° West 427 491 36,000  Level FlightAware Transoceanic
Mon 06:34:00 AM 51.0530 -29.6315 257° West 427 491 36,000  Level FlightAware Transoceanic
Mon 06:35:00 AM 51.0266 -29.8159 257° West 427 491 36,000 16 Level FlightAware Transoceanic
Mon 06:36:00 AM 51.0015 -29.9898 257° West  Level FlightAware Approximate
Mon 06:37:00 AM 50.9761 -30.1636 257° West  Level FlightAware Approximate
Mon 06:38:00 AM 51.0066 -30.1572 274° West  Level FlightAware Approximate
Mon 06:39:00 AM 51.0139 -30.3353 274° West  Level FlightAware Approximate
Mon 06:40:00 AM 51.0208 -30.5134 274° West  Level FlightAware Approximate
Mon 06:41:00 AM 51.0275 -30.6916 273° West  Level FlightAware Approximate
Mon 06:42:00 AM 51.0340 -30.8699 273° West  Level FlightAware Approximate
Mon 06:43:00 AM 51.0401 -31.0482 273° West  Level FlightAware Approximate
Mon 06:44:00 AM 51.0460 -31.2265 273° West  Level FlightAware Approximate
Mon 06:45:00 AM 51.0516 -31.4049 273° West  Level FlightAware Approximate
Mon 06:46:00 AM 51.0570 -31.5833 273° West  Level FlightAware Approximate
Mon 06:47:00 AM 51.0620 -31.7618 273° West  Level FlightAware Approximate
Mon 06:48:00 AM 51.0668 -31.9403 273° West  Level FlightAware Approximate
Mon 06:49:00 AM 51.0714 -32.1189 272° West  Level FlightAware Approximate
Mon 06:50:00 AM 51.0756 -32.2974 272° West  Level FlightAware Approximate
Mon 06:51:00 AM 51.0796 -32.4761 272° West  Level FlightAware Approximate
Mon 06:52:00 AM 51.0833 -32.6547 272° West  Level FlightAware Approximate
Mon 06:53:00 AM 51.0868 -32.8334 272° West  Level FlightAware Approximate
Mon 06:54:00 AM 51.0899 -33.0121 272° West  Level FlightAware Approximate
Mon 06:55:00 AM 51.0928 -33.1908 272° West  Level FlightAware Approximate
Mon 06:56:00 AM 51.0955 -33.3695 271° West  Level FlightAware Approximate
Mon 06:57:00 AM 51.0978 -33.5483 271° West  Level FlightAware Approximate
Mon 06:58:00 AM 51.0999 -33.7271 271° West  Level FlightAware Approximate
Mon 06:59:00 AM 51.1017 -33.9058 271° West  Level FlightAware Approximate
Mon 07:00:00 AM 51.1032 -34.0846 271° West  Level FlightAware Approximate
Mon 07:01:00 AM 51.1045 -34.2635 271° West  Level FlightAware Approximate
Mon 07:02:00 AM 51.1055 -34.4423 271° West  Level FlightAware Approximate
Mon 07:03:00 AM 51.1062 -34.6211 270° West  Level FlightAware Approximate
Mon 07:04:00 AM 51.1066 -34.7999 270° West  Level FlightAware Approximate
Mon 07:05:00 AM 51.1068 -34.9788 270° West  Level FlightAware Approximate
Mon 07:06:00 AM 51.1067 -35.1576 270° West  Level FlightAware Approximate
Mon 07:07:00 AM 51.1063 -35.3364 270° West  Level FlightAware Approximate
Mon 07:08:00 AM 51.1057 -35.5153 270° West  Level FlightAware Approximate
Mon 07:09:00 AM 51.1047 -35.6941 270° West  Level FlightAware Approximate
Mon 07:10:00 AM 51.1035 -35.8729 269° West  Level FlightAware Approximate
Mon 07:11:00 AM 51.1021 -36.0517 269° West  Level FlightAware Approximate
Mon 07:12:00 AM 51.1003 -36.2305 269° West  Level FlightAware Approximate
Mon 07:13:00 AM 51.0983 -36.4093 269° West  Level FlightAware Approximate
Mon 07:14:00 AM 51.0960 -36.5881 269° West  Level FlightAware Approximate
Mon 07:15:00 AM 51.0935 -36.7668 269° West  Level FlightAware Approximate
Mon 07:16:00 AM 51.0906 -36.9455 269° West  Level FlightAware Approximate
Mon 07:17:00 AM 51.0875 -37.1242 268° West  Level FlightAware Approximate
Mon 07:18:00 AM 51.0842 -37.3029 268° West  Level FlightAware Approximate
Mon 07:19:00 AM 51.0805 -37.4815 268° West  Level FlightAware Approximate
Mon 07:20:00 AM 51.0766 -37.6601 268° West  Level FlightAware Approximate
Mon 07:21:00 AM 51.0724 -37.8387 268° West  Level FlightAware Approximate
Mon 07:22:00 AM 51.0679 -38.0173 268° West  Level FlightAware Approximate
Mon 07:23:00 AM 51.0632 -38.1958 268° West  Level FlightAware Approximate
Mon 07:24:00 AM 51.0582 -38.3743 268° West  Level FlightAware Approximate
Mon 07:25:00 AM 51.0529 -38.5527 267° West  Level FlightAware Approximate
Mon 07:26:00 AM 51.0474 -38.7311 267° West  Level FlightAware Approximate
Mon 07:27:00 AM 51.0415 -38.9095 267° West  Level FlightAware Approximate
Mon 07:28:00 AM 51.0354 -39.0878 267° West  Level FlightAware Approximate
Mon 07:29:00 AM 51.0291 -39.2661 267° West  Level FlightAware Approximate
Mon 07:30:00 AM 51.0224 -39.4443 267° West  Level FlightAware Approximate
Mon 07:31:00 AM 51.0155 -39.6224 267° West  Level FlightAware Approximate
Mon 07:32:00 AM 51.0084 -39.8005 266° West  Level FlightAware Approximate
Mon 07:33:00 AM 51.0009 -39.9786 266° West  Level FlightAware Approximate
Mon 07:34:00 AM 51.0222 -40.1530 283° West  Level FlightAware Approximate
Mon 07:35:00 AM 51.0471 -40.3271 283° West  Level FlightAware Approximate
Mon 07:36:00 AM 51.0718 -40.5014 283° West  Level FlightAware Approximate
Mon 07:37:00 AM 51.0962 -40.6759 283° West  Level FlightAware Approximate
Mon 07:38:00 AM 51.1204 -40.8505 282° West  Level FlightAware Approximate
Mon 07:39:00 AM 51.1443 -41.0253 282° West  Level FlightAware Approximate
Mon 07:40:00 AM 51.1679 -41.2004 282° West  Level FlightAware Approximate
Mon 07:41:00 AM 51.1913 -41.3755 282° West  Level FlightAware Approximate
Mon 07:42:00 AM 51.2144 -41.5509 282° West  Level FlightAware Approximate
Mon 07:43:00 AM 51.2373 -41.7265 282° West  Level FlightAware Approximate
Mon 07:44:00 AM 51.2598 -41.9022 282° West  Level FlightAware Approximate
Mon 07:45:00 AM 51.2822 -42.0781 282° West  Level FlightAware Approximate
Mon 07:46:00 AM 51.3042 -42.2541 281° West  Level FlightAware Approximate
Mon 07:47:00 AM 51.3260 -42.4304 281° West  Level FlightAware Approximate
Mon 07:48:00 AM 51.3476 -42.6068 281° West  Level FlightAware Approximate
Mon 07:49:00 AM 51.3689 -42.7833 281° West  Level FlightAware Approximate
Mon 07:50:00 AM 51.3899 -42.9600 281° West  Level FlightAware Approximate
Mon 07:51:00 AM 51.4106 -43.1369 281° West  Level FlightAware Approximate
Mon 07:52:00 AM 51.4311 -43.3140 281° West  Level FlightAware Approximate
Mon 07:53:00 AM 51.4513 -43.4912 280° West  Level FlightAware Approximate
Mon 07:54:00 AM 51.4712 -43.6685 280° West  Level FlightAware Approximate
Mon 07:55:00 AM 51.4909 -43.8460 280° West  Level FlightAware Approximate
Mon 07:56:00 AM 51.5103 -44.0237 280° West  Level FlightAware Approximate
Mon 07:57:00 AM 51.5294 -44.2015 280° West  Level FlightAware Approximate
Mon 07:58:00 AM 51.5483 -44.3795 280° West  Level FlightAware Approximate
Mon 07:59:00 AM 51.5669 -44.5576 280° West  Level FlightAware Approximate
Mon 08:00:00 AM 51.5852 -44.7358 279° West  Level FlightAware Approximate
Mon 08:01:00 AM 51.6033 -44.9142 279° West  Level FlightAware Approximate
Mon 08:02:00 AM 51.6211 -45.0928 279° West  Level FlightAware Approximate
Mon 08:03:00 AM 51.6386 -45.2715 279° West  Level FlightAware Approximate
Mon 08:04:00 AM 51.6558 -45.4503 279° West  Level FlightAware Approximate
Mon 08:05:00 AM 51.6728 -45.6292 279° West  Level FlightAware Approximate
Mon 08:06:00 AM 51.6895 -45.8083 279° West  Level FlightAware Approximate
Mon 08:07:00 AM 51.7059 -45.9875 278° West  Level FlightAware Approximate
Mon 08:08:00 AM 51.7221 -46.1668 278° West  Level FlightAware Approximate
Mon 08:09:00 AM 51.7380 -46.3463 278° West  Level FlightAware Approximate
Mon 08:10:00 AM 51.7536 -46.5259 278° West  Level FlightAware Approximate
Mon 08:11:00 AM 51.7689 -46.7056 278° West  Level FlightAware Approximate
Mon 08:12:00 AM 51.7840 -46.8855 278° West  Level FlightAware Approximate
Mon 08:13:00 AM 51.7987 -47.0654 278° West  Level FlightAware Approximate
Mon 08:14:00 AM 51.8133 -47.2455 277° West  Level FlightAware Approximate
Mon 08:15:00 AM 51.8275 -47.4257 277° West  Level FlightAware Approximate
Mon 08:16:00 AM 51.8414 -47.6060 277° West  Level FlightAware Approximate
Mon 08:17:00 AM 51.8551 -47.7864 277° West  Level FlightAware Approximate
Mon 08:18:00 AM 51.8685 -47.9669 277° West  Level FlightAware Approximate
Mon 08:19:00 AM 51.8817 -48.1475 277° West  Level FlightAware Approximate
Mon 08:20:00 AM 51.8945 -48.3283 277° West  Level FlightAware Approximate
Mon 08:21:00 AM 51.9071 -48.5091 277° West  Level FlightAware Approximate
Mon 08:22:00 AM 51.9194 -48.6900 276° West  Level FlightAware Approximate
Mon 08:23:00 AM 51.9314 -48.8711 276° West  Level FlightAware Approximate
Mon 08:24:00 AM 51.9432 -49.0522 276° West  Level FlightAware Approximate
Mon 08:25:00 AM 51.9546 -49.2334 276° West  Level FlightAware Approximate
Mon 08:26:00 AM 51.9658 -49.4147 276° West  Level FlightAware Approximate
Mon 08:27:00 AM 51.9767 -49.5961 276° West  Level FlightAware Approximate
Mon 08:28:00 AM 51.9874 -49.7776 276° West  Level FlightAware Approximate
Mon 08:29:00 AM 51.9977 -49.9592 275° West  Level FlightAware Approximate
Mon 08:30:00 AM 51.9709 -50.1333 251° West  Level FlightAware Approximate
Mon 08:31:00 AM 51.9331 -50.3049 250° West  Level FlightAware Approximate
Mon 08:32:00 AM 51.8951 -50.4761 250° West  Level FlightAware Approximate
Mon 08:33:00 AM 51.8568 -50.6471 250° West  Level FlightAware Approximate
Mon 08:34:00 AM 51.8183 -50.8178 250° West  Level FlightAware Approximate
Mon 08:35:00 AM 51.7795 -50.9882 250° West  Level FlightAware Approximate
Mon 08:36:00 AM 51.7405 -51.1583 250° West  Level FlightAware Approximate
Mon 08:36:17 AM 51.9667 -50.0667 249° West 400 460 38,000  Level Gander Center
Mon 08:37:00 AM 51.7012 -51.3281 250° West  Level FlightAware Approximate
Mon 08:37:17 AM 51.9333 -50.2500 254° West 370 426 38,000  Level Gander Center
Mon 08:38:00 AM 51.6611 -51.4973 249° West  Level FlightAware Approximate
Mon 08:38:17 AM 51.8833 -50.3833 239° Southwest 370 426 38,000  Level Gander Center
Mon 08:39:00 AM 51.6207 -51.6661 249° West  Level FlightAware Approximate
Mon 08:39:17 AM 51.8500 -50.5667 254° West 380 437 38,000  Level Gander Center
Mon 08:40:00 AM 51.5801 -51.8347 249° West  Level FlightAware Approximate
Mon 08:40:17 AM 51.8167 -50.7000 248° West 370 426 38,000  Level Gander Center
Mon 08:41:00 AM 51.5393 -52.0029 249° West  Level FlightAware Approximate
Mon 08:41:17 AM 51.7833 -50.8833 254° West 370 426 38,000  Level Gander Center
Mon 08:42:17 AM 51.7500 -51.0500 252° West 380 437 38,000  Level Gander Center
Mon 08:43:17 AM 51.7333 -51.1833 259° West 370 426 38,000  Level Gander Center
Mon 08:44:17 AM 51.7000 -51.3667 254° West 370 426 38,000  Level Gander Center
Mon 08:45:17 AM 51.6500 -51.5000 239° Southwest 370 426 38,000  Level Gander Center
Mon 08:46:17 AM 51.6167 -51.6833 254° West 380 437 38,000  Level Gander Center
Mon 08:47:17 AM 51.5833 -51.8167 248° West 370 426 38,000  Level Gander Center
Mon 08:48:17 AM 51.5333 -51.9833 244° Southwest 380 437 38,000  Level Gander Center
Mon 08:49:17 AM 51.5167 -52.1333 260° West 380 437 38,000  Level Gander Center
Mon 08:50:17 AM 51.4667 -52.3000 244° Southwest 380 437 38,000  Level Gander Center
Mon 08:56:07 AM 51.2680 -53.3020 244° Southwest 38,000  Level FlightAware ADS-B
Mon 08:56:47 AM 51.2420 -53.4130 250° West 391 450 38,000  Level FlightAware ADS-B
Mon 08:57:23 AM 51.2190 -53.5090 249° West 391 450 38,000  Level FlightAware ADS-B
Mon 08:57:57 AM 51.1970 -53.6030 250° West 392 451 38,000  Level FlightAware ADS-B
Mon 08:58:32 AM 51.1740 -53.7010 250° West 395 455 38,000  Level FlightAware ADS-B
Mon 08:59:07 AM 51.1520 -53.7930 249° West 396 456 38,000  Level FlightAware ADS-B
Mon 08:59:45 AM 51.1270 -53.8970 249° West 400 460 38,000  Level FlightAware ADS-B
Mon 09:00:18 AM 51.1050 -53.9900 249° West 404 465 38,000  Level FlightAware ADS-B
Mon 09:00:53 AM 51.0810 -54.0880 249° West 408 470 38,000  Level FlightAware ADS-B
Mon 09:01:40 AM 51.0490 -54.2210 249° West 410 472 38,000  Level FlightAware ADS-B
Mon 09:02:15 AM 51.0250 -54.3200 249° West 411 473 38,000  Level FlightAware ADS-B
Mon 09:02:50 AM 51.0030 -54.4080 248° West 413 475 38,000  Level FlightAware ADS-B
Mon 09:03:30 AM 50.9730 -54.5310 249° West 413 475 38,000  Level FlightAware ADS-B
Mon 09:04:00 AM 50.9530 -54.6120 249° West 415 478 38,000  Level FlightAware ADS-B
Mon 09:04:37 AM 50.9290 -54.7050 248° West 415 478 38,000  Level FlightAware ADS-B
Mon 09:05:21 AM 50.8980 -54.8310 249° West 417 480 38,000  Level FlightAware ADS-B
Mon 09:05:55 AM 50.8700 -54.9430 248° West 418 481 38,000  Level FlightAware ADS-B
Mon 09:06:35 AM 50.8420 -55.0550 248° West 419 482 38,000  Level FlightAware ADS-B
Mon 09:07:11 AM 50.8170 -55.1530 248° West 420 483 38,000  Level FlightAware ADS-B
Mon 09:07:45 AM 50.7910 -55.2550 248° West 420 483 38,000  Level FlightAware ADS-B
Mon 09:08:20 AM 50.7660 -55.3510 248° West 419 482 38,000  Level FlightAware ADS-B
Mon 09:08:55 AM 50.7400 -55.4510 248° West 417 480 38,000  Level FlightAware ADS-B
Mon 09:09:30 AM 50.7150 -55.5500 248° West 414 476 38,000  Level FlightAware ADS-B
Mon 09:10:05 AM 50.6920 -55.6380 248° West 413 475 38,000  Level FlightAware ADS-B
Mon 09:10:40 AM 50.6650 -55.7430 248° West 410 472 38,000  Level FlightAware ADS-B
Mon 09:11:15 AM 50.6390 -55.8400 247° West 408 470 38,000  Level FlightAware ADS-B
Mon 09:11:35 AM 50.6260 -55.8920 249° West 405 466 38,000  Level FlightAware ADS-B
Mon 09:12:35 AM 50.5820 -56.0570 247° West 405 466 38,000  Level FlightAware ADS-B
Mon 09:13:12 AM 50.5570 -56.1510 247° West 404 465 38,000  Level FlightAware ADS-B
Mon 09:13:45 AM 50.5320 -56.2470 248° West 405 466 38,000  Level FlightAware ADS-B
Mon 09:14:20 AM 50.5080 -56.3380 248° West 406 467 38,000  Level FlightAware ADS-B
Mon 09:14:55 AM 50.4810 -56.4380 247° West 409 471 38,000  Level FlightAware ADS-B
Mon 09:15:30 AM 50.4550 -56.5310 246° West 410 472 38,000  Level FlightAware ADS-B
Mon 09:16:05 AM 50.4300 -56.6270 248° West 414 476 38,000  Level FlightAware ADS-B
Mon 09:16:41 AM 50.4030 -56.7230 246° West 416 479 38,000  Level FlightAware ADS-B
Mon 09:17:15 AM 50.3770 -56.8200 247° West 418 481 38,000  Level FlightAware ADS-B
Mon 09:17:50 AM 50.3490 -56.9190 246° West 419 482 38,000  Level FlightAware ADS-B
Mon 09:18:25 AM 50.3220 -57.0190 247° West 420 483 38,000  Level FlightAware ADS-B
Mon 09:19:00 AM 50.2960 -57.1130 247° West 421 484 38,000  Level FlightAware ADS-B
Mon 09:19:35 AM 50.2680 -57.2120 246° West 421 484 38,000  Level FlightAware ADS-B
Mon 09:20:11 AM 50.2410 -57.3100 247° West 422 486 38,000  Level FlightAware ADS-B
Mon 09:20:45 AM 50.2140 -57.4080 247° West 423 487 38,000  Level FlightAware ADS-B
Mon 09:21:20 AM 50.1870 -57.5040 246° West 424 488 38,000  Level FlightAware ADS-B
Mon 09:21:55 AM 50.1590 -57.6030 246° West 425 489 38,000  Level FlightAware ADS-B
Mon 09:22:30 AM 50.1310 -57.7010 246° West 424 488 38,000  Level FlightAware ADS-B
Mon 09:23:05 AM 50.1040 -57.7960 246° West 423 487 38,000  Level FlightAware ADS-B
Mon 09:23:45 AM 50.0710 -57.9090 246° West 419 482 38,000  Level FlightAware ADS-B
Mon 09:24:16 AM 50.0480 -57.9900 246° West 418 481 38,000  Level FlightAware ADS-B
Mon 09:24:50 AM 50.0210 -58.0830 246° West 416 479 38,000  Level FlightAware ADS-B
Mon 09:25:30 AM 49.9900 -58.1910 246° West 414 476 38,000  Level FlightAware ADS-B
Mon 09:26:00 AM 49.9680 -58.2640 245° Southwest 414 476 38,000  Level FlightAware ADS-B
Mon 09:26:40 AM 49.9380 -58.3660 245° Southwest 413 475 38,000  Level FlightAware ADS-B
Mon 09:27:16 AM 49.9080 -58.4690 246° West 412 474 38,000  Level FlightAware ADS-B
Mon 09:27:52 AM 49.8830 -58.5510 245° Southwest 412 474 38,000  Level FlightAware ADS-B
Mon 09:28:28 AM 49.8590 -58.6330 246° West 412 474 38,000  Level FlightAware ADS-B
Mon 09:29:05 AM 49.8330 -58.7170 244° Southwest 412 474 38,000  Level FlightAware ADS-B
Mon 09:29:41 AM 49.8090 -58.7990 246° West 412 474 38,000  Level FlightAware ADS-B
Mon 09:30:17 AM 49.7840 -58.8810 245° Southwest 412 474 38,000  Level FlightAware ADS-B
Mon 09:30:50 AM 49.7330 -59.0560 246° West 38,000  Level FlightAware ADS-B
Mon 09:31:35 AM 49.6990 -59.1670 245° Southwest 420 483 38,000  Level FlightAware ADS-B
Mon 09:32:14 AM 49.6720 -59.2570 245° Southwest 420 483 38,000  Level FlightAware ADS-B
Mon 09:32:50 AM 49.6470 -59.3400 245° Southwest 420 483 38,000  Level FlightAware ADS-B
Mon 09:33:26 AM 49.6220 -59.4230 245° Southwest 420 483 38,000  Level FlightAware ADS-B
Mon 09:34:35 AM 49.5470 -59.6630 244° Southwest 401 461 38,000  Level FlightAware ADS-B
Mon 09:35:20 AM 49.5080 -59.7880 244° Southwest 431 496 38,000  Level FlightAware ADS-B
Mon 09:35:57 AM 49.4770 -59.8870 244° Southwest 431 496 38,000  Level FlightAware ADS-B
Mon 09:36:35 AM 49.4450 -59.9880 244° Southwest 431 496 38,000  Level FlightAware ADS-B
Mon 09:37:11 AM 49.4180 -60.0730 244° Southwest 431 496 38,000  Level FlightAware ADS-B
Mon 09:37:45 AM 49.3930 -60.1520 244° Southwest 431 496 38,000  Level FlightAware ADS-B
Mon 09:38:21 AM 49.3660 -60.2360 244° Southwest 431 496 38,000  Level FlightAware ADS-B
Mon 09:38:57 AM 49.3390 -60.3210 244° Southwest 431 496 38,000  Level FlightAware ADS-B
Mon 09:39:33 AM 49.3120 -60.4050 244° Southwest 431 496 38,000  Level FlightAware ADS-B
Mon 09:40:09 AM 49.2860 -60.4890 245° Southwest 431 496 38,000  Level FlightAware ADS-B
Mon 09:40:46 AM 49.2580 -60.5750 244° Southwest 431 496 38,000  Level FlightAware ADS-B
Mon 09:41:22 AM 49.2310 -60.6590 244° Southwest 431 496 38,000  Level FlightAware ADS-B
Mon 09:41:58 AM 49.2040 -60.7430 244° Southwest 431 496 38,000  Level FlightAware ADS-B
Mon 09:42:34 AM 49.1780 -60.8270 245° Southwest 431 496 38,000  Level FlightAware ADS-B
Mon 09:43:10 AM 49.1510 -60.9110 244° Southwest 431 496 38,000  Level FlightAware ADS-B
Mon 09:43:46 AM 49.1240 -60.9950 244° Southwest 431 496 38,000  Level FlightAware ADS-B
Mon 09:44:22 AM 49.0970 -61.0790 244° Southwest 431 496 38,000  Level FlightAware ADS-B
Mon 09:44:58 AM 49.0710 -61.1620 244° Southwest 431 496 38,000  Level FlightAware ADS-B
Mon 09:45:35 AM 49.0430 -61.2480 244° Southwest 431 496 38,000  Level FlightAware ADS-B
Mon 09:46:17 AM 48.9000 -61.5333 244° Southwest 430 495 38,000  Level Gander Center
Mon 09:47:17 AM 48.8500 -61.7167 248° West 430 495 38,000  Level Gander Center
Mon 09:48:17 AM 48.8000 -61.8667 243° Southwest 430 495 38,000  Level Gander Center
Mon 09:49:15 AM 48.7500 -62.0167 243° Southwest 430 495 38,000  Level Moncton Center
Mon 09:49:17 AM 48.7500 -62.0167 243° Southwest 420 483 38,000  Level Gander Center
Mon 09:50:15 AM 48.7000 -62.1833 246° West 430 495 38,000  Level Moncton Center
Mon 09:51:15 AM 48.6333 -62.3500 239° Southwest 420 483 38,000  Level Moncton Center
Mon 09:52:15 AM 48.5833 -62.5000 243° Southwest 430 495 38,000  Level Moncton Center
Mon 09:53:17 AM 48.5167 -62.6667 239° Southwest 430 495 38,000  Level Gander Center
Mon 09:54:17 AM 48.4667 -62.8167 243° Southwest 430 495 38,000  Level Gander Center
Mon 09:55:17 AM 48.4167 -62.9667 243° Southwest 430 495 38,000  Level Gander Center
Mon 09:56:17 AM 48.3500 -63.1500 241° Southwest 430 495 38,000  Level Gander Center
Mon 09:57:15 AM 48.3000 -63.2833 241° Southwest 430 495 38,000  Level Moncton Center
Mon 09:57:17 AM 48.3000 -63.2833 241° Southwest 420 483 38,000  Level Gander Center
Mon 09:58:15 AM 48.2500 -63.4333 243° Southwest 420 483 38,000  Level Moncton Center
Mon 09:59:15 AM 48.1833 -63.6167 241° Southwest 420 483 38,000  Level Moncton Center
Mon 10:00:15 AM 48.1333 -63.7500 241° Southwest 420 483 38,000  Level Moncton Center
Mon 10:01:15 AM 48.0833 -63.9167 246° West 420 483 38,000  Level Moncton Center
Mon 10:02:15 AM 48.0167 -64.0500 233° Southwest 410 472 38,000  Level Moncton Center
Mon 10:03:15 AM 47.9667 -64.2000 244° Southwest 410 472 38,000  Level Moncton Center
Mon 10:04:15 AM 47.9167 -64.3500 244° Southwest 410 472 38,000  Level Moncton Center
Mon 10:05:15 AM 47.8667 -64.5000 244° Southwest 410 472 38,000  Level Moncton Center
Mon 10:06:15 AM 47.8000 -64.6667 239° Southwest 420 483 38,000  Level Moncton Center
Mon 10:07:15 AM 47.7500 -64.8167 244° Southwest 420 483 38,000  Level Moncton Center
Mon 10:08:15 AM 47.6833 -64.9667 237° Southwest 420 483 38,000  Level Moncton Center
Mon 10:09:15 AM 47.6333 -65.1167 244° Southwest 420 483 38,000  Level Moncton Center
Mon 10:10:15 AM 47.5833 -65.2667 244° Southwest 420 483 38,000  Level Moncton Center
Mon 10:11:15 AM 47.5167 -65.4167 237° Southwest 420 483 38,000  Level Moncton Center
Mon 10:12:15 AM 47.4667 -65.5667 244° Southwest 420 483 38,000  Level Moncton Center
Mon 10:13:15 AM 47.3833 -65.7000 227° Southwest 410 472 38,000  Level Moncton Center
Mon 10:14:15 AM 47.3333 -65.8500 244° Southwest 410 472 38,000  Level Moncton Center
Mon 10:15:15 AM 47.2833 -66.0000 244° Southwest 410 472 38,000  Level Moncton Center
Mon 10:16:15 AM 47.2167 -66.1500 237° Southwest 410 472 38,000  Level Moncton Center
Mon 10:17:15 AM 47.1667 -66.3000 244° Southwest 410 472 38,000  Level Moncton Center
Mon 10:18:15 AM 47.1167 -66.4333 241° Southwest 410 472 38,000  Level Moncton Center
Mon 10:19:15 AM 47.0500 -66.5833 237° Southwest 410 472 38,000  Level Moncton Center
Mon 10:20:15 AM 46.9833 -66.7333 237° Southwest 410 472 38,000  Level Moncton Center
Mon 10:25:51 AM 46.6330 -67.5310 237° Southwest 426 490 38,000  Level FlightAware ADS-B
Mon 10:26:35 AM 46.5850 -67.6270 234° Southwest 425 489 38,000  Level FlightAware ADS-B
Mon 10:27:10 AM 46.5430 -67.7090 233° Southwest 424 488 38,000  Level FlightAware ADS-B
Mon 10:28:03 AM 46.4870 -67.8190 234° Southwest 424 488 38,000  Level FlightAware ADS-B
Mon 10:28:40 AM 46.4400 -67.9120 234° Southwest 422 486 38,000  Level FlightAware ADS-B
Mon 10:29:18 AM 46.3940 -68.0020 233° Southwest 419 482 38,000  Level FlightAware ADS-B
Mon 10:29:53 AM 46.3530 -68.0820 233° Southwest 418 481 38,000  Level FlightAware ADS-B
Mon 10:30:23 AM 46.3190 -68.1490 234° Southwest 417 480 38,000  Level FlightAware ADS-B
Mon 10:31:03 AM 46.2730 -68.2390 234° Southwest 417 480 38,000  Level FlightAware ADS-B
Mon 10:31:38 AM 46.2320 -68.3170 233° Southwest 416 479 38,000  Level FlightAware ADS-B
Mon 10:32:13 AM 46.1930 -68.3940 234° Southwest 415 478 38,000  Level FlightAware ADS-B
Mon 10:32:53 AM 46.1470 -68.4820 233° Southwest 415 478 38,000  Level FlightAware ADS-B
Mon 10:33:28 AM 46.1070 -68.5590 233° Southwest 415 478 38,000  Level FlightAware ADS-B
Mon 10:34:03 AM 46.0670 -68.6360 233° Southwest 415 478 38,000  Level FlightAware ADS-B
Mon 10:34:38 AM 46.0280 -68.7110 233° Southwest 417 480 38,000  Level FlightAware ADS-B
Mon 10:35:13 AM 45.9860 -68.7900 233° Southwest 417 480 38,000  Level FlightAware ADS-B
Mon 10:35:48 AM 45.9450 -68.8680 233° Southwest 419 482 38,000  Level FlightAware ADS-B
Mon 10:36:23 AM 45.9050 -68.9450 233° Southwest 421 484 38,000  Level FlightAware ADS-B
Mon 10:36:58 AM 45.8640 -69.0230 233° Southwest 421 484 38,000  Level FlightAware ADS-B
Mon 10:37:33 AM 45.8220 -69.1010 232° Southwest 423 487 38,000  Level FlightAware ADS-B
Mon 10:38:08 AM 45.7810 -69.1790 233° Southwest 424 488 38,000  Level FlightAware ADS-B
Mon 10:38:43 AM 45.7400 -69.2560 233° Southwest 426 490 38,000  Level FlightAware ADS-B
Mon 10:39:18 AM 45.6980 -69.3350 233° Southwest 426 490 38,000  Level FlightAware ADS-B
Mon 10:39:53 AM 45.6570 -69.4120 233° Southwest 428 493 38,000  Level FlightAware ADS-B
Mon 10:40:29 AM 45.6150 -69.4900 232° Southwest 427 491 38,000  Level FlightAware ADS-B
Mon 10:41:03 AM 45.5720 -69.5690 232° Southwest 428 493 38,000  Level FlightAware ADS-B
Mon 10:41:38 AM 45.5310 -69.6460 233° Southwest 428 493 38,000  Level FlightAware ADS-B
Mon 10:42:13 AM 45.4880 -69.7240 232° Southwest 428 493 38,000  Level FlightAware ADS-B
Mon 10:42:48 AM 45.4460 -69.8020 233° Southwest 428 493 38,000  Level FlightAware ADS-B
Mon 10:43:23 AM 45.4040 -69.8800 233° Southwest 428 493 38,000  Level FlightAware ADS-B
Mon 10:44:03 AM 45.3560 -69.9680 232° Southwest 429 494 38,000  Level FlightAware ADS-B
Mon 10:44:43 AM 45.3070 -70.0570 232° Southwest 428 493 38,000  Level FlightAware ADS-B
Mon 10:45:18 AM 45.2650 -70.1340 232° Southwest 427 491 38,000  Level FlightAware ADS-B
Mon 10:45:53 AM 45.2220 -70.2110 232° Southwest 426 490 38,000  Level FlightAware ADS-B
Mon 10:46:23 AM 45.1870 -70.2760 233° Southwest 425 489 38,000  Level FlightAware ADS-B
Mon 10:47:03 AM 45.1380 -70.3630 231° Southwest 423 487 38,000  Level FlightAware ADS-B
Mon 10:47:33 AM 45.1020 -70.4280 232° Southwest 422 486 38,000  Level FlightAware ADS-B
Mon 10:48:08 AM 45.0600 -70.5030 232° Southwest 420 483 38,000  Level FlightAware ADS-B
Mon 10:48:48 AM 45.0130 -70.5880 232° Southwest 420 483 38,000  Level FlightAware ADS-B
Mon 10:49:23 AM 44.9710 -70.6630 232° Southwest 419 482 38,000  Level FlightAware ADS-B
Mon 10:49:53 AM 44.9350 -70.7270 232° Southwest 419 482 38,000  Level FlightAware ADS-B
Mon 10:50:33 AM 44.8880 -70.8100 231° Southwest 418 481 38,000  Level FlightAware ADS-B
Mon 10:51:03 AM 44.8500 -70.8770 231° Southwest 419 482 38,000  Level FlightAware ADS-B
Mon 10:51:38 AM 44.8090 -70.9510 232° Southwest 417 480 38,000  Level FlightAware ADS-B
Mon 10:52:19 AM 44.7590 -71.0370 231° Southwest 416 479 38,000  Level FlightAware ADS-B
Mon 10:52:51 AM 44.7210 -71.1060 232° Southwest 417 480 38,000  Level FlightAware ADS-B
Mon 10:53:23 AM 44.6820 -71.1730 231° Southwest 416 479 38,000  Level FlightAware ADS-B
Mon 10:54:01 AM 44.6370 -71.2520 231° Southwest 416 479 38,000  Level FlightAware ADS-B
Mon 10:54:39 AM 44.5920 -71.3310 231° Southwest 417 480 38,000  Level FlightAware ADS-B
Mon 10:55:12 AM 44.5500 -71.4020 230° Southwest 416 479 38,000  Level FlightAware ADS-B
Mon 10:55:45 AM 44.5110 -71.4700 231° Southwest 416 479 38,000  Level FlightAware ADS-B
Mon 10:56:21 AM 44.4670 -71.5460 231° Southwest 417 480 38,000  Level FlightAware ADS-B
Mon 10:56:58 AM 44.4230 -71.6220 231° Southwest 417 480 38,000  Level FlightAware ADS-B
Mon 10:57:28 AM 44.3850 -71.6860 230° Southwest 417 480 38,000  Level FlightAware ADS-B
Mon 10:58:08 AM 44.3380 -71.7670 231° Southwest 418 481 38,000  Level FlightAware ADS-B
Mon 10:58:44 AM 44.2940 -71.8430 231° Southwest 419 482 38,000  Level FlightAware ADS-B
Mon 10:59:15 AM 44.2550 -71.9080 230° Southwest 419 482 38,000  Level FlightAware ADS-B
Mon 10:59:52 AM 44.2100 -71.9850 231° Southwest 419 482 38,000  Level FlightAware ADS-B
Mon 11:00:28 AM 44.1650 -72.0620 231° Southwest 420 483 38,000  Level FlightAware ADS-B
Mon 11:00:59 AM 44.1270 -72.1250 230° Southwest 421 484 38,000  Level FlightAware ADS-B
Mon 11:01:36 AM 44.0780 -72.1990 227° Southwest 426 490 38,000  Level FlightAware ADS-B
Mon 11:02:12 AM 44.0260 -72.2670 223° Southwest 429 494 38,000  Level FlightAware ADS-B
Mon 11:02:49 AM 43.9740 -72.3330 222° Southwest 431 496 38,000  Level FlightAware ADS-B
Mon 11:03:22 AM 43.9240 -72.3950 222° Southwest 431 496 38,000  Level FlightAware ADS-B
Mon 11:03:56 AM 43.8720 -72.4600 222° Southwest 433 498 38,000  Level FlightAware ADS-B
Mon 11:04:29 AM 43.8240 -72.5200 222° Southwest 434 499 38,000  Level FlightAware ADS-B
Mon 11:05:06 AM 43.7680 -72.5890 222° Southwest 434 499 38,000  Level FlightAware ADS-B
Mon 11:05:42 AM 43.7140 -72.6570 222° Southwest 434 499 38,000  Level FlightAware ADS-B
Mon 11:06:17 AM 43.6630 -72.7200 222° Southwest 434 499 38,000  Level FlightAware ADS-B
Mon 11:06:54 AM 43.6070 -72.7900 222° Southwest 434 499 38,000 -609 Level FlightAware ADS-B
Mon 11:07:26 AM 43.5610 -72.8470 222° Southwest 435 501 37,300 -1,881 Descending FlightAware ADS-B
Mon 11:08:01 AM 43.5070 -72.9140 222° Southwest 440 506 35,900 -2,571 Descending FlightAware ADS-B
Mon 11:08:36 AM 43.4530 -72.9790 221° Southwest 447 514 34,300 -2,750 Descending FlightAware ADS-B
Mon 11:09:13 AM 43.3960 -73.0490 222° Southwest 455 524 32,600 -2,647 Descending FlightAware ADS-B
Mon 11:09:44 AM 43.3520 -73.1030 222° Southwest 457 526 31,300 -2,492 Descending FlightAware ADS-B
Mon 11:10:18 AM 43.2940 -73.1740 222° Southwest 449 517 29,900 -2,261 Descending FlightAware ADS-B
Mon 11:10:53 AM 43.2430 -73.2360 222° Southwest 436 502 28,700 -2,113 Descending FlightAware ADS-B
Mon 11:11:29 AM 43.1910 -73.2990 221° Southwest 435 501 27,400 -2,282 Descending FlightAware ADS-B
Mon 11:12:04 AM 43.1360 -73.3660 222° Southwest 428 493 26,000 -2,250 Descending FlightAware ADS-B
Mon 11:12:49 AM 43.0700 -73.4450 221° Southwest 420 483 24,400 -1,950 Descending FlightAware ADS-B
Mon 11:13:24 AM 43.0200 -73.5050 221° Southwest 406 467 23,400 -2,118 Descending FlightAware ADS-B
Mon 11:14:14 AM 42.9540 -73.5850 222° Southwest 402 463 21,400 -2,475 Descending FlightAware ADS-B
Mon 11:14:44 AM 42.9110 -73.6370 222° Southwest 403 464 20,100 -2,432 Descending FlightAware ADS-B
Mon 11:15:28 AM 42.8480 -73.7120 221° Southwest 397 457 18,400 -2,163 Descending FlightAware ADS-B
Mon 11:16:10 AM 42.7910 -73.7800 221° Southwest 386 444 17,000 -1,974 Descending FlightAware ADS-B
Mon 11:16:44 AM 42.7420 -73.8320 218° Southwest 381 438 15,900 -867 Descending FlightAware ADS-B
Mon 11:17:40 AM 42.6580 -73.8830 204° Southwest 381 438 15,700 -120 Descending FlightAware ADS-B
Mon 11:18:24 AM 42.5880 -73.9090 195° South 382 440 15,700  Level FlightAware ADS-B
Mon 11:19:01 AM 42.5360 -73.9350 200° South 382 440 15,700  Level FlightAware ADS-B
Mon 11:19:37 AM 42.4850 -73.9600 200° South 382 440 15,700  Level FlightAware ADS-B
Mon 11:20:15 AM 42.4310 -73.9860 200° South 382 440 15,700  Level FlightAware ADS-B
Mon 11:20:51 AM 42.3800 -74.0110 200° South 382 440 15,700  Level FlightAware ADS-B
Mon 11:21:28 AM 42.3280 -74.0370 200° South 382 440 15,700  Level FlightAware ADS-B
Mon 11:22:04 AM 42.2000 -74.0760 193° South 387 445 15,700  Level FlightAware ADS-B
Mon 11:22:48 AM 42.1280 -74.1080 198° South 385 443 15,700  Level FlightAware ADS-B
Mon 11:23:25 AM 42.0620 -74.1360 197° South 384 442 15,700  Level FlightAware ADS-B
Mon 11:24:01 AM 42.0000 -74.1630 198° South 374 430 15,700 -169 Level FlightAware ADS-B
Mon 11:24:36 AM 41.9430 -74.1870 197° South 362 417 15,500 -1,130 Descending FlightAware ADS-B
Mon 11:25:10 AM 41.8900 -74.2100 198° South 356 410 14,400 -1,913 Descending FlightAware ADS-B
Mon 11:25:45 AM 41.8350 -74.2340 198° South 352 405 13,300 -1,886 Descending FlightAware ADS-B
Mon 11:26:20 AM 41.7830 -74.2560 198° South 349 402 12,200 -1,833 Descending FlightAware ADS-B
Mon 11:26:57 AM 41.7250 -74.2800 197° South 342 394 11,100 -1,565 Descending FlightAware ADS-B
Mon 11:27:29 AM 41.6770 -74.3010 198° South 325 374 10,400 -870 Descending FlightAware ADS-B
Mon 11:28:06 AM 41.6260 -74.3220 197° South 294 338 10,100 -508 Descending FlightAware ADS-B
Mon 11:28:28 AM 41.5990 -74.3330 197° South 284 327 9,900 -1,050 Descending FlightAware ADS-B
Mon 11:28:46 AM 41.5750 -74.3430 197° South 284 327 9,400 -1,500 Descending FlightAware ADS-B
Mon 11:29:08 AM 41.5500 -74.3540 198° South 283 326 8,900 -1,304 Descending FlightAware ADS-B
Mon 11:29:32 AM 41.5200 -74.3660 197° South 278 320 8,400 -1,429 Descending FlightAware ADS-B
Mon 11:29:50 AM 41.4980 -74.3760 199° South 277 319 7,900 -1,579 Descending FlightAware ADS-B
Mon 11:30:10 AM 41.4720 -74.3870 198° South 278 320 7,400 -1,543 Descending FlightAware ADS-B
Mon 11:30:25 AM 41.4540 -74.3940 196° South 278 320 7,000 -1,135 Descending FlightAware ADS-B
Mon 11:30:47 AM 41.4270 -74.4060 198° South 274 315 6,700 -450 Descending FlightAware ADS-B
Mon 11:31:05 AM 41.4060 -74.4140 196° South 276 318 6,700  Level FlightAware ADS-B
Mon 11:31:24 AM 41.3820 -74.4240 197° South 276 318 6,700  Level FlightAware ADS-B
Mon 11:31:42 AM 41.3610 -74.4330 198° South 276 318 6,700  Level FlightAware ADS-B
Mon 11:32:04 AM 41.3350 -74.4430 196° South 275 316 6,700  Level FlightAware ADS-B
Mon 11:32:25 AM 41.3070 -74.4550 198° South 276 318 6,700  Level FlightAware ADS-B
Mon 11:32:45 AM 41.2840 -74.4650 198° South 276 318 6,700  Level FlightAware ADS-B
Mon 11:33:04 AM 41.2590 -74.4750 197° South 275 316 6,700  Level FlightAware ADS-B
Mon 11:33:30 AM 41.2280 -74.4880 198° South 276 318 6,700  Level FlightAware ADS-B
Mon 11:33:41 AM 41.2150 -74.4930 196° South 276 318 6,700  Level FlightAware ADS-B
Mon 11:34:02 AM 41.1890 -74.5040 198° South 276 318 6,700  Level FlightAware ADS-B
Mon 11:34:24 AM 41.1620 -74.5160 199° South 275 316 6,700 -400 Level FlightAware ADS-B
Mon 11:34:47 AM 41.1360 -74.5260 196° South 274 315 6,400 -1,067 Descending FlightAware ADS-B
Mon 11:35:09 AM 41.1069 -74.5381 197° South 273 314 5,900 -1,105 Descending FlightAware ADS-B
Mon 11:35:25 AM 41.0877 -74.5462 198° South 275 316 5,700 -316 Descending FlightAware ADS-B
Mon 11:35:47 AM 41.0603 -74.5574 197° South 276 318 5,700  Level FlightAware ADS-B
Mon 11:36:30 AM 41.0080 -74.5670 188° South 278 320 5,700  Level FlightAware ADS-B
Mon 11:36:51 AM 40.9800 -74.5700 185° South 277 319 5,700  Level FlightAware ADS-B
Mon 11:37:04 AM 40.9630 -74.5720 185° South 279 321 5,700  Level FlightAware ADS-B
Mon 11:37:26 AM 40.9360 -74.5760 186° South 278 320 5,700 -409 Level FlightAware ADS-B
Mon 11:37:48 AM 40.9060 -74.5790 184° South 276 318 5,400 -727 Descending FlightAware ADS-B
Mon 11:37:59 AM 40.8950 -74.5810 188° South 274 315 5,300 -1,135 Descending FlightAware ADS-B
Mon 11:38:25 AM 40.8610 -74.5850 185° South 266 306 4,700 -973 Descending FlightAware ADS-B
Mon 11:38:36 AM 40.8470 -74.5860 183° South 265 305 4,700  Level FlightAware ADS-B
Mon 11:39:02 AM 40.8135 -74.5840 177° South 270 311 4,700  Level FlightAware ADS-B
Mon 11:39:54 AM 40.7490 -74.5749 174° South 272 313 4,700  Level FlightAware ADS-B
Mon 11:40:11 AM 40.7287 -74.5721 174° South 274 315 4,700  Level FlightAware ADS-B
Mon 11:40:45 AM 40.6860 -74.5605 168° South 274 315 4,700  Level FlightAware ADS-B
Mon 11:41:23 AM 40.6420 -74.5330 155° Southeast 278 320 4,700  Level FlightAware ADS-B
Mon 11:41:40 AM 40.6250 -74.5220 154° Southeast 278 320 4,700 -600 Level FlightAware ADS-B
Mon 11:41:53 AM 40.6090 -74.5080 146° Southeast 276 318 4,400 -1,125 Descending FlightAware ADS-B
Mon 11:42:12 AM 40.5930 -74.4880 136° Southeast 274 315 4,100 -1,105 Descending FlightAware ADS-B
Mon 11:42:31 AM 40.5750 -74.4640 135° Southeast 267 307 3,700 -649 Descending FlightAware ADS-B
Mon 11:42:49 AM 40.5610 -74.4460 136° Southeast 252 290 3,700  Level FlightAware ADS-B
Mon 11:42:55 AM 40.5560 -74.4370 126° Southeast 246 283 3,700  Level FlightAware ADS-B
Mon 11:43:17 AM 40.5450 -74.4080 117° Southeast 231 266 3,700 -154 Level FlightAware ADS-B
Mon 11:43:34 AM 40.5380 -74.3870 114° Southeast 225 259 3,600 -643 Descending FlightAware ADS-B
Mon 11:43:45 AM 40.5340 -74.3720 109° East 226 260 3,400 -1,029 Descending FlightAware ADS-B
Mon 11:44:09 AM 40.5390 -74.3450 76° East 226 260 3,000 -977 Descending FlightAware ADS-B
Mon 11:44:28 AM 40.5480 -74.3160 68° East 218 251 2,700 -600 Descending FlightAware ADS-B
Mon 11:44:49 AM 40.5560 -74.2930 65° Northeast 200 230 2,600 -450 Descending FlightAware ADS-B
Mon 11:45:08 AM 40.5630 -74.2720 66° East 185 213 2,400 -811 Descending FlightAware ADS-B
Mon 11:45:26 AM 40.5699 -74.2542 63° Northeast 175 201 2,100 -1,000 Descending FlightAware ADS-B
Mon 11:45:38 AM 40.5770 -74.2453 44° Northeast 175 201 1,900 -1,200 Descending FlightAware ADS-B
Mon 11:45:41 AM 40.5790 -74.2439 28° Northeast 177 204 1,800 -1,200 Descending FlightAware ADS-B
Mon 11:45:58 AM 40.5919 -74.2367 23° Northeast 181 208 1,500 -923 Descending FlightAware ADS-B
Mon 11:46:20 AM 40.6082 -74.2261 26° Northeast 180 207 1,200 -973 Descending FlightAware ADS-B
Mon 11:46:35 AM 40.6195 -74.2189 26° Northeast 181 208 900 -1,125 Descending FlightAware ADS-B
Mon 11:46:52 AM 40.6321 -74.2108 26° Northeast 174 200 600 -973 Descending FlightAware ADS-B
Mon 11:47:12 AM 40.6463 -74.2018 26° Northeast 159 183 300 -811 Descending FlightAware ADS-B
Mon 11:47:29 AM 40.6568 -74.1952 25° Northeast 145 167 100 -706 Descending FlightAware ADS-B
Mon 11:48:25 AM 40.6840 -74.1780 26° Northeast 136 157 -107 Descending FlightAware ADS-B

Login

Don't have an account? Register now (free) for customized features, flight alerts, and more!